Hauptseite
METAR-TAF:

METAR-TAF

Flughäfen :

Flughafen Jakutsk

Jakutsk, Russland

Breite: 62-01N, Länge: 129-43E, Höhe: 103 m

Beobachtung

Neuester Wetterbericht von vor 35 Minuten, um 11:00 UTC
Wind 10 kt aus West/Nordwest
Temperatur 5°C
Luftfeuchtigkeit 75%
Luftdruck 1011 hPa
Sichtweite 10 km oder mehr
keine Wolken unter 1500 m und keine Kumulonimbus oder Gewitterwolken

METAR: UEEE 191100Z 30005MPS CAVOK 05/01 Q1011 R23L/09//60 NOSIG RMK QFE749

Zeit: 20:35 (11:35 UTC)

Prognose

Neuester Wetterbericht von vor 3 Stunden und 35 Minuten, um 08:00 UTC
Gültige Prognose vom 19 um 09 UTC bis 20 um 15 UTC
Wind 6 kt aus West/Nordwest
Sichtweite 10 km oder mehr
keine Wolken unter 1500 m und keine Kumulonimbus oder Gewitterwolken
Zeitweise
vom 19 um 15 UTC bis 20 um 01 UTC
Sichtweite: 0300 m
in der Höhe von 200 ft
Nebel

TAF: UEEE 190800Z 1909/2015 30003MPS CAVOK TEMPO 1915/2001 0300 FG VV002

Wetterbeobachtungen und Prognosen von mehr als 4000 Flughäfen (METAR und TAF Bericht).

Die verfügbaren Stationen werden durch gelbe und rote Markierungen auf der Karte dargestellt.

Führen Sie die Maus auf sie, um den Namen der Station zu sehen.

Darauf klicken, um die Beobachtung von Wetterbeobachtungen und Prognosen zu sehen.

Um die Karte zu ändern : klicken Sie auf den grünen Tasten mit einem schwarzen Kreuz Zum Vergrößern, auf den grünen Button mit einem Gedankenstrich zu verkleinern, oder auf die grünen Pfeile für benachbarte Karten.


METAR-TAF: